createdAt,value
2018-11-23T00:03:20.095Z,101067.79
2018-11-23T00:08:22.328Z,101068.67
2018-11-23T00:13:24.358Z,101064.77
2018-11-23T00:18:26.385Z,101066.95
2018-11-23T00:23:28.472Z,101073.02
2018-11-23T00:28:30.959Z,101065.14
2018-11-23T00:33:33.000Z,101069.70
2018-11-23T00:38:35.089Z,101069.89
2018-11-23T00:43:37.125Z,101068.56
2018-11-23T00:48:39.164Z,101066.09
2018-11-23T00:53:41.197Z,101070.15
2018-11-23T00:58:43.416Z,101061.75
2018-11-23T01:03:45.500Z,101065.73
2018-11-23T01:08:47.538Z,101062.79
2018-11-23T01:13:49.572Z,101058.44
2018-11-23T01:18:51.735Z,101060.61
2018-11-23T01:23:54.117Z,101065.03
2018-11-23T01:28:56.127Z,101058.05
2018-11-23T01:33:58.213Z,101052.38
2018-11-23T01:39:00.265Z,101049.62
2018-11-23T01:44:02.668Z,101052.27
2018-11-23T01:49:04.760Z,101066.95
2018-11-23T01:54:06.772Z,101058.81
2018-11-23T01:59:08.985Z,101050.47
2018-11-23T02:04:11.165Z,101048.40
2018-11-23T02:09:13.176Z,101037.63
2018-11-23T02:14:15.455Z,101045.09
2018-11-23T02:19:17.725Z,101032.80
2018-11-23T02:24:19.793Z,101027.95
2018-11-23T02:29:22.176Z,101023.97
2018-11-23T02:34:25.108Z,101023.60
2018-11-23T02:39:27.341Z,101024.08
2018-11-23T02:44:29.392Z,101025.30
2018-11-23T02:49:31.427Z,101020.77
2018-11-23T02:54:33.477Z,101025.11
2018-11-23T02:59:35.495Z,101024.19
2018-11-23T03:04:37.823Z,101022.75
2018-11-23T03:09:40.344Z,101032.21
2018-11-23T03:14:42.402Z,101035.27
2018-11-23T03:19:44.800Z,101040.34
2018-11-23T03:24:46.808Z,101030.80
2018-11-23T03:29:48.828Z,101032.61
2018-11-23T03:34:51.193Z,101027.30
2018-11-23T03:39:53.234Z,101028.89
2018-11-23T03:44:55.247Z,101028.41
2018-11-23T03:49:57.644Z,101027.57
2018-11-23T03:55:00.353Z,101029.38
2018-11-23T04:00:08.165Z,101031.28
2018-11-23T04:05:10.522Z,101020.87
2018-11-23T04:10:13.655Z,101017.27
2018-11-23T04:15:15.739Z,101011.97
2018-11-23T04:20:18.771Z,101014.80
2018-11-23T04:25:21.068Z,101011.30
2018-11-23T04:30:23.428Z,101011.12
2018-11-23T04:35:25.523Z,101011.67
2018-11-23T04:40:27.595Z,101006.96
2018-11-23T04:45:29.637Z,101012.15
2018-11-23T04:50:31.724Z,101004.02
2018-11-23T04:55:34.395Z,101010.27
2018-11-23T05:00:36.473Z,101007.51
2018-11-23T05:05:38.571Z,101012.25
2018-11-23T05:10:40.583Z,101007.44
2018-11-23T05:15:42.632Z,101010.92
2018-11-23T05:20:44.908Z,101002.50
2018-11-23T05:25:46.920Z,100996.64
2018-11-23T05:30:48.972Z,100991.05
2018-11-23T05:35:51.071Z,100997.56
2018-11-23T05:40:53.310Z,100994.47
2018-11-23T05:45:55.361Z,100998.52
2018-11-23T05:50:57.372Z,101001.09
2018-11-23T05:55:59.445Z,100998.81
2018-11-23T06:01:01.468Z,100999.30
2018-11-23T06:06:03.577Z,100994.52
2018-11-23T06:11:05.717Z,101000.38
2018-11-23T06:16:07.729Z,100993.84
2018-11-23T06:21:09.793Z,101008.02
2018-11-23T06:26:15.105Z,100999.88
2018-11-23T06:31:17.169Z,100992.89
2018-11-23T06:41:28.069Z,100999.22
2018-11-23T06:46:30.164Z,100995.27
2018-11-23T06:51:32.191Z,100988.61
2018-11-23T06:56:34.249Z,100989.63
2018-11-23T07:01:36.361Z,100992.64
2018-11-23T07:06:38.509Z,100986.95
2018-11-23T07:11:40.568Z,100983.73
2018-11-23T07:16:42.623Z,100986.30
2018-11-23T07:21:44.775Z,100991.72
2018-11-23T07:26:46.837Z,100995.27
2018-11-23T07:31:48.925Z,100997.28
2018-11-23T07:36:51.633Z,100997.92
2018-11-23T07:42:05.396Z,100996.65
2018-11-23T07:47:07.749Z,100988.69
2018-11-23T07:52:09.793Z,100992.44
2018-11-23T07:57:11.956Z,100999.35
2018-11-23T08:02:14.068Z,101007.11
2018-11-23T08:07:16.168Z,100997.98
2018-11-23T08:12:18.188Z,101001.38
2018-11-23T08:17:20.216Z,100992.02
2018-11-23T08:22:22.324Z,100990.23
2018-11-23T08:27:24.356Z,100999.87
2018-11-23T08:32:26.686Z,100999.12
2018-11-23T08:37:28.821Z,101005.12
2018-11-23T08:42:31.325Z,101002.55
2018-11-23T08:47:33.399Z,100996.91
2018-11-23T08:52:35.493Z,100990.89
2018-11-23T08:57:37.540Z,100992.27
2018-11-23T09:02:39.592Z,100991.41
2018-11-23T09:07:42.344Z,100996.53
2018-11-23T09:12:46.225Z,100992.20
2018-11-23T09:17:48.261Z,100987.23
2018-11-23T09:22:50.294Z,100989.34
2018-11-23T09:27:52.971Z,100993.61
2018-11-23T09:32:55.574Z,100981.38
2018-11-23T09:37:57.864Z,100976.66
2018-11-23T09:42:59.916Z,100980.66
2018-11-23T09:48:03.507Z,100968.52
2018-11-23T09:53:05.553Z,100966.50
2018-11-23T09:58:07.596Z,100961.61
2018-11-23T10:03:09.676Z,100952.91
2018-11-23T10:08:11.825Z,100941.95
2018-11-23T10:13:14.048Z,100944.74
2018-11-23T10:18:16.097Z,100935.78
2018-11-23T10:23:18.232Z,100940.64
2018-11-23T10:28:20.313Z,100933.02
2018-11-23T10:33:22.842Z,100935.34
2018-11-23T10:38:24.512Z,100927.67
2018-11-23T10:43:26.587Z,100919.66
2018-11-23T10:48:28.663Z,100918.41
2018-11-23T10:53:31.242Z,100924.70
2018-11-23T10:58:33.772Z,100916.03
2018-11-23T11:03:40.525Z,100905.11
2018-11-23T11:08:42.725Z,100908.41
2018-11-23T11:13:44.792Z,100896.28
2018-11-23T11:18:46.838Z,100878.52
2018-11-23T11:23:48.915Z,100880.02
2018-11-23T11:28:51.420Z,100876.09
2018-11-23T11:33:53.547Z,100870.91
2018-11-23T11:38:55.709Z,100868.83
2018-11-23T11:43:57.777Z,100862.18
2018-11-23T11:48:59.844Z,100847.86
2018-11-23T11:54:01.882Z,100851.58
2018-11-23T11:59:04.598Z,100852.05
2018-11-23T12:04:06.661Z,100843.04
2018-11-23T12:09:10.660Z,100840.69
2018-11-23T12:14:12.750Z,100832.31
2018-11-23T12:19:14.820Z,100826.76
2018-11-23T12:24:16.852Z,100806.67
2018-11-23T12:29:19.217Z,100808.14
2018-11-23T12:34:21.255Z,100804.89
2018-11-23T12:39:23.406Z,100792.79
2018-11-23T12:44:25.424Z,100796.91
2018-11-23T12:49:27.456Z,100795.45
2018-11-23T12:54:29.496Z,100788.23
2018-11-23T12:59:31.541Z,100773.78
2018-11-23T13:04:33.568Z,100775.13
2018-11-23T13:09:35.702Z,100762.80
2018-11-23T13:14:37.749Z,100754.25
2018-11-23T13:19:40.547Z,100752.91
2018-11-23T13:24:49.537Z,100760.51
2018-11-23T13:29:51.569Z,100762.15
2018-11-23T13:34:53.591Z,100767.85
2018-11-23T13:39:56.120Z,100766.50
2018-11-23T13:44:58.433Z,100761.96
2018-11-23T13:50:00.506Z,100764.98
2018-11-23T13:55:02.804Z,100753.27
2018-11-23T14:00:09.009Z,100757.06
2018-11-23T14:05:12.650Z,100759.22
2018-11-23T14:10:16.142Z,100750.62
2018-11-23T14:15:19.681Z,100740.78
2018-11-23T14:20:23.233Z,100736.41
2018-11-23T14:25:26.586Z,100739.58
2018-11-23T14:30:30.104Z,100742.10
2018-11-23T14:35:33.225Z,100728.44
2018-11-23T14:40:35.284Z,100729.64
2018-11-23T14:45:37.393Z,100731.83
2018-11-23T14:50:45.445Z,100737.23
2018-11-23T14:55:47.967Z,100736.52
2018-11-23T15:00:50.013Z,100736.62
2018-11-23T15:05:52.062Z,100738.27
2018-11-23T15:10:54.160Z,100737.99
2018-11-23T15:15:56.345Z,100739.98
2018-11-23T15:21:05.920Z,100745.06
2018-11-23T15:26:07.992Z,100741.76
2018-11-23T15:31:10.050Z,100737.91
2018-11-23T15:36:12.107Z,100735.33
2018-11-23T15:41:14.236Z,100729.98
2018-11-23T15:46:16.313Z,100732.67
2018-11-23T15:51:18.373Z,100734.19
2018-11-23T15:56:20.379Z,100735.35
2018-11-23T16:01:22.416Z,100746.51
2018-11-23T16:06:24.473Z,100743.50
2018-11-23T16:11:26.888Z,100739.20
2018-11-23T16:16:28.922Z,100731.58
2018-11-23T16:21:31.660Z,100737.41
2018-11-23T16:26:33.695Z,100730.95
2018-11-23T16:31:35.726Z,100725.86
2018-11-23T16:36:38.368Z,100720.00
2018-11-23T16:41:40.483Z,100728.75
2018-11-23T16:46:42.560Z,100715.64
2018-11-23T16:51:45.542Z,100703.12
2018-11-23T16:56:47.563Z,100693.59
2018-11-23T17:01:49.608Z,100688.16
2018-11-23T17:06:51.658Z,100698.88
2018-11-23T17:11:53.767Z,100694.30
2018-11-23T17:16:56.091Z,100698.40
2018-11-23T17:21:58.377Z,100695.75
2018-11-23T17:27:00.482Z,100685.30
2018-11-23T17:32:03.105Z,100680.81
2018-11-23T17:37:06.783Z,100674.63
2018-11-23T17:42:09.804Z,100668.61
2018-11-23T17:47:11.889Z,100669.23
2018-11-23T17:52:13.953Z,100667.76
2018-11-23T17:57:15.973Z,100663.66
2018-11-23T18:02:20.772Z,100665.16
2018-11-23T18:07:23.739Z,100676.96
2018-11-23T18:12:25.784Z,100664.67
2018-11-23T18:17:27.835Z,100658.31
2018-11-23T18:22:29.896Z,100660.96
2018-11-23T18:27:32.130Z,100660.89
2018-11-23T18:32:34.200Z,100652.09
2018-11-23T18:37:36.225Z,100651.30
2018-11-23T18:42:38.509Z,100639.05
2018-11-23T18:47:41.575Z,100632.00
2018-11-23T18:52:43.653Z,100635.00
2018-11-23T18:57:45.709Z,100629.34
2018-11-23T19:02:48.362Z,100629.91
2018-11-23T19:07:50.482Z,100625.34
2018-11-23T19:12:52.849Z,100609.86
2018-11-23T19:17:55.594Z,100606.37
2018-11-23T19:22:57.921Z,100594.68
2018-11-23T19:27:59.958Z,100581.62
2018-11-23T19:33:02.018Z,100577.15
2018-11-23T19:38:04.308Z,100570.03
2018-11-23T19:43:06.404Z,100569.66
2018-11-23T19:48:08.889Z,100566.23
2018-11-23T19:53:11.221Z,100572.65
2018-11-23T19:58:13.262Z,100575.41
2018-11-23T20:03:15.309Z,100569.38
2018-11-23T20:08:17.560Z,100557.90
2018-11-23T20:13:19.587Z,100558.35
2018-11-23T20:18:22.515Z,100549.55
2018-11-23T20:23:24.556Z,100544.71
2018-11-23T20:28:26.684Z,100534.98
2018-11-23T20:33:28.920Z,100529.77
2018-11-23T20:38:32.088Z,100528.47
2018-11-23T20:43:34.274Z,100521.33
2018-11-23T20:48:36.644Z,100519.50
2018-11-23T20:53:38.926Z,100510.83
2018-11-23T20:58:40.944Z,100504.47
2018-11-23T21:03:42.992Z,100501.59
2018-11-23T21:08:45.080Z,100502.48
2018-11-23T21:13:47.093Z,100520.33
2018-11-23T21:18:49.417Z,100516.16
2018-11-23T21:23:52.254Z,100527.41
2018-11-23T21:28:54.697Z,100527.42
2018-11-23T21:33:56.826Z,100515.95
2018-11-23T21:39:00.156Z,100521.69
2018-11-23T21:44:02.248Z,100507.52
2018-11-23T21:49:04.616Z,100502.71
2018-11-23T21:54:06.890Z,100501.11
2018-11-23T21:59:08.942Z,100504.31
2018-11-23T22:04:10.996Z,100498.37
2018-11-23T22:09:13.106Z,100506.95
2018-11-23T22:14:15.177Z,100490.73
2018-11-23T22:19:18.085Z,100482.39
2018-11-23T22:24:20.521Z,100477.66
2018-11-23T22:29:22.571Z,100481.77
2018-11-23T22:34:24.644Z,100469.09
2018-11-23T22:39:27.367Z,100454.75
2018-11-23T22:44:29.436Z,100455.67
2018-11-23T22:49:31.552Z,100444.13
2018-11-23T22:54:33.665Z,100438.70
2018-11-23T22:59:35.692Z,100433.61
2018-11-23T23:04:37.806Z,100429.63
2018-11-23T23:09:40.095Z,100421.27
2018-11-23T23:14:42.156Z,100414.50
2018-11-23T23:19:44.266Z,100411.38
2018-11-23T23:24:46.672Z,100404.23
2018-11-23T23:29:48.707Z,100394.59
2018-11-23T23:34:50.858Z,100401.44
2018-11-23T23:39:52.927Z,100398.14
2018-11-23T23:44:55.016Z,100391.66
2018-11-23T23:49:57.184Z,100387.05
2018-11-23T23:54:59.504Z,100382.45
